sensor_id;sensor_type;location;lat;lon;timestamp;P1;durP1;ratioP1;P2;durP2;ratioP2
36801;SDS011;22753;42.604;23.366;2022-07-10T00:01:06;14.88;;;11.68;;
36801;SDS011;22753;42.604;23.366;2022-07-10T00:03:32;16.33;;;11.13;;
36801;SDS011;22753;42.604;23.366;2022-07-10T00:05:57;16.17;;;11.15;;
36801;SDS011;22753;42.604;23.366;2022-07-10T00:08:23;13.25;;;11.05;;
36801;SDS011;22753;42.604;23.366;2022-07-10T00:10:49;15.25;;;11.52;;
36801;SDS011;22753;42.604;23.366;2022-07-10T00:13:14;13.63;;;10.15;;
36801;SDS011;22753;42.604;23.366;2022-07-10T00:15:40;15.48;;;10.75;;
36801;SDS011;22753;42.604;23.366;2022-07-10T00:18:05;13.98;;;10.05;;
36801;SDS011;22753;42.604;23.366;2022-07-10T00:20:31;17.30;;;11.20;;
36801;SDS011;22753;42.604;23.366;2022-07-10T00:22:57;13.10;;;10.95;;
36801;SDS011;22753;42.604;23.366;2022-07-10T00:25:22;16.75;;;11.27;;
36801;SDS011;22753;42.604;23.366;2022-07-10T00:27:48;15.65;;;10.98;;
36801;SDS011;22753;42.604;23.366;2022-07-10T00:30:13;16.02;;;10.60;;
36801;SDS011;22753;42.604;23.366;2022-07-10T00:32:39;13.00;;;10.77;;
36801;SDS011;22753;42.604;23.366;2022-07-10T00:35:05;13.27;;;10.77;;
36801;SDS011;22753;42.604;23.366;2022-07-10T00:37:31;14.23;;;10.80;;
36801;SDS011;22753;42.604;23.366;2022-07-10T00:39:56;14.75;;;11.23;;
36801;SDS011;22753;42.604;23.366;2022-07-10T00:42:22;16.08;;;10.38;;
36801;SDS011;22753;42.604;23.366;2022-07-10T00:44:47;12.55;;;10.68;;
36801;SDS011;22753;42.604;23.366;2022-07-10T00:47:13;12.98;;;10.48;;
36801;SDS011;22753;42.604;23.366;2022-07-10T00:49:42;14.85;;;10.27;;
36801;SDS011;22753;42.604;23.366;2022-07-10T00:52:16;13.88;;;10.25;;
36801;SDS011;22753;42.604;23.366;2022-07-10T00:54:46;13.48;;;10.13;;
36801;SDS011;22753;42.604;23.366;2022-07-10T00:57:15;12.65;;;9.73;;
36801;SDS011;22753;42.604;23.366;2022-07-10T00:59:41;14.43;;;9.43;;
36801;SDS011;22753;42.604;23.366;2022-07-10T01:02:06;17.75;;;9.57;;
36801;SDS011;22753;42.604;23.366;2022-07-10T01:04:32;14.13;;;9.43;;
36801;SDS011;22753;42.604;23.366;2022-07-10T01:06:58;13.32;;;9.45;;
36801;SDS011;22753;42.604;23.366;2022-07-10T01:09:24;14.07;;;9.15;;
36801;SDS011;22753;42.604;23.366;2022-07-10T01:11:50;13.13;;;9.50;;
36801;SDS011;22753;42.604;23.366;2022-07-10T01:14:16;15.70;;;9.68;;
36801;SDS011;22753;42.604;23.366;2022-07-10T01:16:41;12.48;;;8.88;;
36801;SDS011;22753;42.604;23.366;2022-07-10T01:19:07;12.95;;;9.23;;
36801;SDS011;22753;42.604;23.366;2022-07-10T01:21:33;11.98;;;9.25;;
36801;SDS011;22753;42.604;23.366;2022-07-10T01:24:02;14.30;;;9.57;;
36801;SDS011;22753;42.604;23.366;2022-07-10T01:26:30;14.73;;;9.32;;
36801;SDS011;22753;42.604;23.366;2022-07-10T01:28:55;11.85;;;8.98;;
36801;SDS011;22753;42.604;23.366;2022-07-10T01:31:24;12.55;;;8.82;;
36801;SDS011;22753;42.604;23.366;2022-07-10T01:33:51;12.60;;;9.25;;
36801;SDS011;22753;42.604;23.366;2022-07-10T01:36:17;11.10;;;9.18;;
36801;SDS011;22753;42.604;23.366;2022-07-10T01:38:43;12.60;;;9.35;;
36801;SDS011;22753;42.604;23.366;2022-07-10T01:41:09;13.63;;;9.23;;
36801;SDS011;22753;42.604;23.366;2022-07-10T01:43:37;11.07;;;8.85;;
36801;SDS011;22753;42.604;23.366;2022-07-10T01:46:03;12.35;;;8.63;;
36801;SDS011;22753;42.604;23.366;2022-07-10T01:48:30;11.43;;;8.40;;
36801;SDS011;22753;42.604;23.366;2022-07-10T01:50:56;12.43;;;8.40;;
36801;SDS011;22753;42.604;23.366;2022-07-10T01:53:21;13.05;;;8.18;;
36801;SDS011;22753;42.604;23.366;2022-07-10T01:55:47;11.07;;;8.05;;
36801;SDS011;22753;42.604;23.366;2022-07-10T01:58:12;14.98;;;8.82;;
36801;SDS011;22753;42.604;23.366;2022-07-10T02:00:38;12.65;;;8.77;;
36801;SDS011;22753;42.604;23.366;2022-07-10T02:03:03;15.52;;;8.85;;
36801;SDS011;22753;42.604;23.366;2022-07-10T02:05:47;11.35;;;8.75;;
36801;SDS011;22753;42.604;23.366;2022-07-10T02:08:13;11.80;;;8.57;;
36801;SDS011;22753;42.604;23.366;2022-07-10T02:10:38;12.18;;;8.18;;
36801;SDS011;22753;42.604;23.366;2022-07-10T02:13:04;14.15;;;8.98;;
36801;SDS011;22753;42.604;23.366;2022-07-10T02:15:29;11.35;;;9.18;;
36801;SDS011;22753;42.604;23.366;2022-07-10T02:17:55;14.10;;;9.40;;
36801;SDS011;22753;42.604;23.366;2022-07-10T02:20:20;11.65;;;8.93;;
36801;SDS011;22753;42.604;23.366;2022-07-10T02:22:46;13.88;;;9.27;;
36801;SDS011;22753;42.604;23.366;2022-07-10T02:25:12;14.25;;;9.23;;
36801;SDS011;22753;42.604;23.366;2022-07-10T02:27:37;14.32;;;9.02;;
36801;SDS011;22753;42.604;23.366;2022-07-10T02:30:03;17.13;;;9.82;;
36801;SDS011;22753;42.604;23.366;2022-07-10T02:32:29;13.02;;;8.18;;
36801;SDS011;22753;42.604;23.366;2022-07-10T02:34:54;11.90;;;8.85;;
36801;SDS011;22753;42.604;23.366;2022-07-10T02:37:20;14.02;;;9.18;;
36801;SDS011;22753;42.604;23.366;2022-07-10T02:39:45;13.07;;;9.27;;
36801;SDS011;22753;42.604;23.366;2022-07-10T02:42:11;13.68;;;9.52;;
36801;SDS011;22753;42.604;23.366;2022-07-10T02:44:36;16.35;;;9.50;;
36801;SDS011;22753;42.604;23.366;2022-07-10T02:47:02;15.77;;;9.10;;
36801;SDS011;22753;42.604;23.366;2022-07-10T02:49:27;14.30;;;9.32;;
36801;SDS011;22753;42.604;23.366;2022-07-10T02:51:53;12.40;;;9.73;;
36801;SDS011;22753;42.604;23.366;2022-07-10T02:54:18;10.98;;;8.50;;
36801;SDS011;22753;42.604;23.366;2022-07-10T02:56:44;14.27;;;9.60;;
36801;SDS011;22753;42.604;23.366;2022-07-10T02:59:09;12.07;;;8.98;;
36801;SDS011;22753;42.604;23.366;2022-07-10T03:01:35;15.07;;;8.77;;
36801;SDS011;22753;42.604;23.366;2022-07-10T03:04:00;12.23;;;8.55;;
36801;SDS011;22753;42.604;23.366;2022-07-10T03:06:26;12.52;;;9.15;;
36801;SDS011;22753;42.604;23.366;2022-07-10T03:08:52;12.10;;;9.35;;
36801;SDS011;22753;42.604;23.366;2022-07-10T03:11:17;15.70;;;9.95;;
36801;SDS011;22753;42.604;23.366;2022-07-10T03:13:43;12.48;;;9.30;;
36801;SDS011;22753;42.604;23.366;2022-07-10T03:16:08;13.13;;;9.55;;
36801;SDS011;22753;42.604;23.366;2022-07-10T03:18:34;12.82;;;9.02;;
36801;SDS011;22753;42.604;23.366;2022-07-10T03:20:59;14.52;;;9.65;;
36801;SDS011;22753;42.604;23.366;2022-07-10T03:23:25;13.30;;;9.88;;
36801;SDS011;22753;42.604;23.366;2022-07-10T03:25:50;12.15;;;9.73;;
36801;SDS011;22753;42.604;23.366;2022-07-10T03:28:16;11.75;;;9.45;;
36801;SDS011;22753;42.604;23.366;2022-07-10T03:30:42;12.43;;;9.48;;
36801;SDS011;22753;42.604;23.366;2022-07-10T03:33:07;12.82;;;9.60;;
36801;SDS011;22753;42.604;23.366;2022-07-10T03:35:33;12.77;;;9.98;;
36801;SDS011;22753;42.604;23.366;2022-07-10T03:37:58;13.90;;;9.77;;
36801;SDS011;22753;42.604;23.366;2022-07-10T03:40:24;13.93;;;10.20;;
36801;SDS011;22753;42.604;23.366;2022-07-10T03:42:51;13.50;;;10.52;;
36801;SDS011;22753;42.604;23.366;2022-07-10T03:45:16;15.18;;;10.30;;
36801;SDS011;22753;42.604;23.366;2022-07-10T03:47:42;15.48;;;10.10;;
36801;SDS011;22753;42.604;23.366;2022-07-10T03:50:08;13.70;;;9.73;;
36801;SDS011;22753;42.604;23.366;2022-07-10T03:52:34;13.60;;;10.40;;
36801;SDS011;22753;42.604;23.366;2022-07-10T03:55:00;13.80;;;10.13;;
36801;SDS011;22753;42.604;23.366;2022-07-10T03:57:26;14.23;;;10.00;;
36801;SDS011;22753;42.604;23.366;2022-07-10T04:00:10;15.27;;;9.85;;
36801;SDS011;22753;42.604;23.366;2022-07-10T04:02:36;12.55;;;9.10;;
36801;SDS011;22753;42.604;23.366;2022-07-10T04:05:04;13.52;;;9.07;;
36801;SDS011;22753;42.604;23.366;2022-07-10T04:07:31;12.02;;;9.13;;
36801;SDS011;22753;42.604;23.366;2022-07-10T04:09:57;12.30;;;9.25;;
36801;SDS011;22753;42.604;23.366;2022-07-10T04:12:22;13.00;;;8.82;;
36801;SDS011;22753;42.604;23.366;2022-07-10T04:14:48;14.02;;;9.32;;
36801;SDS011;22753;42.604;23.366;2022-07-10T04:17:16;13.13;;;8.85;;
36801;SDS011;22753;42.604;23.366;2022-07-10T04:19:42;12.65;;;8.98;;
36801;SDS011;22753;42.604;23.366;2022-07-10T04:22:08;11.43;;;8.30;;
36801;SDS011;22753;42.604;23.366;2022-07-10T04:24:34;15.05;;;9.25;;
36801;SDS011;22753;42.604;23.366;2022-07-10T04:27:00;12.18;;;8.05;;
36801;SDS011;22753;42.604;23.366;2022-07-10T04:29:26;12.30;;;8.45;;
36801;SDS011;22753;42.604;23.366;2022-07-10T04:31:51;11.98;;;8.02;;
36801;SDS011;22753;42.604;23.366;2022-07-10T04:34:17;14.10;;;7.93;;
36801;SDS011;22753;42.604;23.366;2022-07-10T04:36:42;10.07;;;8.10;;
36801;SDS011;22753;42.604;23.366;2022-07-10T04:39:08;11.07;;;7.68;;
36801;SDS011;22753;42.604;23.366;2022-07-10T04:41:33;11.70;;;7.57;;
36801;SDS011;22753;42.604;23.366;2022-07-10T04:43:59;11.10;;;7.30;;
36801;SDS011;22753;42.604;23.366;2022-07-10T04:46:24;11.00;;;7.32;;
36801;SDS011;22753;42.604;23.366;2022-07-10T04:48:50;11.13;;;7.55;;
36801;SDS011;22753;42.604;23.366;2022-07-10T04:51:16;9.40;;;7.00;;
36801;SDS011;22753;42.604;23.366;2022-07-10T04:53:42;10.07;;;7.47;;
36801;SDS011;22753;42.604;23.366;2022-07-10T04:56:07;10.93;;;7.57;;
36801;SDS011;22753;42.604;23.366;2022-07-10T04:58:33;12.50;;;7.65;;
36801;SDS011;22753;42.604;23.366;2022-07-10T05:00:58;11.73;;;6.97;;
36801;SDS011;22753;42.604;23.366;2022-07-10T05:03:24;12.27;;;6.82;;
36801;SDS011;22753;42.604;23.366;2022-07-10T05:05:49;10.10;;;6.97;;
36801;SDS011;22753;42.604;23.366;2022-07-10T05:08:15;14.20;;;6.97;;
36801;SDS011;22753;42.604;23.366;2022-07-10T05:10:40;11.25;;;6.95;;
36801;SDS011;22753;42.604;23.366;2022-07-10T05:13:06;9.90;;;6.60;;
36801;SDS011;22753;42.604;23.366;2022-07-10T05:15:31;9.88;;;6.68;;
36801;SDS011;22753;42.604;23.366;2022-07-10T05:17:57;11.25;;;7.13;;
36801;SDS011;22753;42.604;23.366;2022-07-10T05:20:22;10.43;;;6.70;;
36801;SDS011;22753;42.604;23.366;2022-07-10T05:22:48;10.93;;;6.82;;
36801;SDS011;22753;42.604;23.366;2022-07-10T05:25:13;11.52;;;7.15;;
36801;SDS011;22753;42.604;23.366;2022-07-10T05:27:39;11.15;;;6.85;;
36801;SDS011;22753;42.604;23.366;2022-07-10T05:30:04;10.13;;;6.70;;
36801;SDS011;22753;42.604;23.366;2022-07-10T05:32:30;9.90;;;6.43;;
36801;SDS011;22753;42.604;23.366;2022-07-10T05:34:59;11.65;;;6.93;;
36801;SDS011;22753;42.604;23.366;2022-07-10T05:37:24;9.35;;;6.32;;
36801;SDS011;22753;42.604;23.366;2022-07-10T05:39:50;10.25;;;6.22;;
36801;SDS011;22753;42.604;23.366;2022-07-10T05:42:15;10.45;;;6.25;;
36801;SDS011;22753;42.604;23.366;2022-07-10T05:44:41;9.60;;;6.57;;
36801;SDS011;22753;42.604;23.366;2022-07-10T05:47:06;11.70;;;6.57;;
36801;SDS011;22753;42.604;23.366;2022-07-10T05:49:32;13.82;;;6.28;;
36801;SDS011;22753;42.604;23.366;2022-07-10T05:51:58;10.27;;;6.43;;
36801;SDS011;22753;42.604;23.366;2022-07-10T05:54:23;10.77;;;6.30;;
36801;SDS011;22753;42.604;23.366;2022-07-10T05:56:49;10.20;;;6.55;;
36801;SDS011;22753;42.604;23.366;2022-07-10T05:59:15;10.73;;;6.25;;
36801;SDS011;22753;42.604;23.366;2022-07-10T06:01:41;10.75;;;6.63;;
36801;SDS011;22753;42.604;23.366;2022-07-10T06:04:06;10.40;;;6.40;;
36801;SDS011;22753;42.604;23.366;2022-07-10T06:06:32;8.27;;;5.68;;
36801;SDS011;22753;42.604;23.366;2022-07-10T06:08:57;8.70;;;5.97;;
36801;SDS011;22753;42.604;23.366;2022-07-10T06:11:24;9.30;;;6.00;;
36801;SDS011;22753;42.604;23.366;2022-07-10T06:13:49;8.32;;;5.60;;
36801;SDS011;22753;42.604;23.366;2022-07-10T06:16:15;14.52;;;6.53;;
36801;SDS011;22753;42.604;23.366;2022-07-10T06:18:41;9.40;;;5.68;;
36801;SDS011;22753;42.604;23.366;2022-07-10T06:21:06;11.52;;;6.28;;
36801;SDS011;22753;42.604;23.366;2022-07-10T06:23:33;7.63;;;5.65;;
36801;SDS011;22753;42.604;23.366;2022-07-10T06:25:58;9.07;;;6.25;;
36801;SDS011;22753;42.604;23.366;2022-07-10T06:28:24;11.55;;;5.80;;
36801;SDS011;22753;42.604;23.366;2022-07-10T06:30:49;9.60;;;5.45;;
36801;SDS011;22753;42.604;23.366;2022-07-10T06:33:14;7.10;;;5.32;;
36801;SDS011;22753;42.604;23.366;2022-07-10T06:35:40;10.32;;;5.90;;
36801;SDS011;22753;42.604;23.366;2022-07-10T06:38:05;7.22;;;5.22;;
36801;SDS011;22753;42.604;23.366;2022-07-10T06:40:34;7.65;;;5.10;;
36801;SDS011;22753;42.604;23.366;2022-07-10T06:43:00;7.25;;;5.15;;
36801;SDS011;22753;42.604;23.366;2022-07-10T06:45:26;9.23;;;5.00;;
36801;SDS011;22753;42.604;23.366;2022-07-10T06:47:52;7.47;;;4.88;;
36801;SDS011;22753;42.604;23.366;2022-07-10T06:50:27;8.98;;;5.50;;
36801;SDS011;22753;42.604;23.366;2022-07-10T06:52:58;6.80;;;4.82;;
36801;SDS011;22753;42.604;23.366;2022-07-10T06:55:24;10.82;;;4.55;;
36801;SDS011;22753;42.604;23.366;2022-07-10T06:57:50;9.77;;;4.70;;
36801;SDS011;22753;42.604;23.366;2022-07-10T07:00:16;10.90;;;4.65;;
36801;SDS011;22753;42.604;23.366;2022-07-10T07:02:42;7.30;;;3.97;;
36801;SDS011;22753;42.604;23.366;2022-07-10T07:05:08;6.70;;;4.55;;
36801;SDS011;22753;42.604;23.366;2022-07-10T07:07:34;8.93;;;4.53;;
36801;SDS011;22753;42.604;23.366;2022-07-10T07:10:00;8.18;;;4.60;;
36801;SDS011;22753;42.604;23.366;2022-07-10T07:12:26;12.48;;;4.50;;
36801;SDS011;22753;42.604;23.366;2022-07-10T07:14:51;4.75;;;3.88;;
36801;SDS011;22753;42.604;23.366;2022-07-10T07:17:17;6.65;;;4.47;;
36801;SDS011;22753;42.604;23.366;2022-07-10T07:19:59;10.13;;;4.90;;
36801;SDS011;22753;42.604;23.366;2022-07-10T07:22:43;10.48;;;4.93;;
36801;SDS011;22753;42.604;23.366;2022-07-10T07:25:27;7.97;;;4.75;;
36801;SDS011;22753;42.604;23.366;2022-07-10T07:27:53;8.65;;;5.13;;
36801;SDS011;22753;42.604;23.366;2022-07-10T07:30:18;7.78;;;4.47;;
36801;SDS011;22753;42.604;23.366;2022-07-10T07:32:44;7.20;;;4.50;;
36801;SDS011;22753;42.604;23.366;2022-07-10T07:35:11;7.70;;;4.32;;
36801;SDS011;22753;42.604;23.366;2022-07-10T07:37:41;6.20;;;4.18;;
36801;SDS011;22753;42.604;23.366;2022-07-10T07:40:09;8.93;;;3.90;;
36801;SDS011;22753;42.604;23.366;2022-07-10T07:42:36;6.35;;;4.13;;
36801;SDS011;22753;42.604;23.366;2022-07-10T07:45:02;6.43;;;3.70;;
36801;SDS011;22753;42.604;23.366;2022-07-10T07:47:43;6.70;;;3.90;;
36801;SDS011;22753;42.604;23.366;2022-07-10T07:50:16;7.82;;;4.03;;
36801;SDS011;22753;42.604;23.366;2022-07-10T07:52:45;7.20;;;4.25;;
36801;SDS011;22753;42.604;23.366;2022-07-10T07:55:12;8.50;;;4.50;;
36801;SDS011;22753;42.604;23.366;2022-07-10T07:57:39;7.35;;;4.15;;
36801;SDS011;22753;42.604;23.366;2022-07-10T08:00:05;6.15;;;4.10;;
36801;SDS011;22753;42.604;23.366;2022-07-10T08:02:33;8.40;;;4.20;;
36801;SDS011;22753;42.604;23.366;2022-07-10T08:04:58;6.60;;;3.55;;
36801;SDS011;22753;42.604;23.366;2022-07-10T08:07:32;7.85;;;3.85;;
36801;SDS011;22753;42.604;23.366;2022-07-10T08:10:07;5.75;;;3.42;;
36801;SDS011;22753;42.604;23.366;2022-07-10T08:12:33;6.53;;;3.88;;
36801;SDS011;22753;42.604;23.366;2022-07-10T08:14:59;7.68;;;3.45;;
36801;SDS011;22753;42.604;23.366;2022-07-10T08:17:25;5.53;;;3.50;;
36801;SDS011;22753;42.604;23.366;2022-07-10T08:19:51;5.72;;;3.60;;
36801;SDS011;22753;42.604;23.366;2022-07-10T08:22:16;5.90;;;3.78;;
36801;SDS011;22753;42.604;23.366;2022-07-10T08:24:42;5.45;;;3.47;;
36801;SDS011;22753;42.604;23.366;2022-07-10T08:27:08;5.15;;;3.67;;
36801;SDS011;22753;42.604;23.366;2022-07-10T08:29:33;5.43;;;3.50;;
36801;SDS011;22753;42.604;23.366;2022-07-10T08:31:59;5.50;;;3.55;;
36801;SDS011;22753;42.604;23.366;2022-07-10T08:34:24;5.68;;;3.63;;
36801;SDS011;22753;42.604;23.366;2022-07-10T08:36:50;8.20;;;4.20;;
36801;SDS011;22753;42.604;23.366;2022-07-10T08:39:16;9.32;;;3.70;;
36801;SDS011;22753;42.604;23.366;2022-07-10T08:41:45;8.80;;;3.60;;
36801;SDS011;22753;42.604;23.366;2022-07-10T08:44:15;4.93;;;3.45;;
36801;SDS011;22753;42.604;23.366;2022-07-10T08:46:43;8.70;;;3.42;;
36801;SDS011;22753;42.604;23.366;2022-07-10T08:49:09;7.15;;;3.50;;
36801;SDS011;22753;42.604;23.366;2022-07-10T08:51:47;8.15;;;3.72;;
36801;SDS011;22753;42.604;23.366;2022-07-10T08:54:14;4.50;;;3.28;;
36801;SDS011;22753;42.604;23.366;2022-07-10T08:56:42;8.68;;;3.50;;
36801;SDS011;22753;42.604;23.366;2022-07-10T08:59:08;5.03;;;3.30;;
36801;SDS011;22753;42.604;23.366;2022-07-10T09:01:34;6.47;;;3.25;;
36801;SDS011;22753;42.604;23.366;2022-07-10T09:03:59;8.30;;;3.40;;
36801;SDS011;22753;42.604;23.366;2022-07-10T09:06:27;4.28;;;2.85;;
36801;SDS011;22753;42.604;23.366;2022-07-10T09:11:31;6.60;;;3.47;;
36801;SDS011;22753;42.604;23.366;2022-07-10T09:13:58;8.05;;;3.08;;
36801;SDS011;22753;42.604;23.366;2022-07-10T09:16:29;5.13;;;3.55;;
36801;SDS011;22753;42.604;23.366;2022-07-10T09:19:14;10.52;;;3.40;;
36801;SDS011;22753;42.604;23.366;2022-07-10T09:21:44;3.92;;;3.20;;
36801;SDS011;22753;42.604;23.366;2022-07-10T09:24:11;6.35;;;3.78;;
36801;SDS011;22753;42.604;23.366;2022-07-10T09:26:37;5.57;;;3.25;;
36801;SDS011;22753;42.604;23.366;2022-07-10T09:29:10;5.63;;;3.55;;
36801;SDS011;22753;42.604;23.366;2022-07-10T09:31:52;5.47;;;3.70;;
36801;SDS011;22753;42.604;23.366;2022-07-10T09:39:56;5.50;;;3.35;;
36801;SDS011;22753;42.604;23.366;2022-07-10T09:42:27;7.07;;;3.10;;
36801;SDS011;22753;42.604;23.366;2022-07-10T09:47:42;7.38;;;3.08;;
36801;SDS011;22753;42.604;23.366;2022-07-10T09:50:25;7.22;;;3.60;;
36801;SDS011;22753;42.604;23.366;2022-07-10T09:52:57;5.45;;;3.28;;
36801;SDS011;22753;42.604;23.366;2022-07-10T09:55:24;7.18;;;3.60;;
36801;SDS011;22753;42.604;23.366;2022-07-10T09:58:00;6.78;;;3.58;;
36801;SDS011;22753;42.604;23.366;2022-07-10T10:00:36;5.68;;;3.47;;
36801;SDS011;22753;42.604;23.366;2022-07-10T10:03:06;5.45;;;3.20;;
36801;SDS011;22753;42.604;23.366;2022-07-10T10:08:04;9.73;;;3.28;;
36801;SDS011;22753;42.604;23.366;2022-07-10T10:10:51;5.47;;;3.08;;
36801;SDS011;22753;42.604;23.366;2022-07-10T10:13:19;6.13;;;2.92;;
36801;SDS011;22753;42.604;23.366;2022-07-10T10:15:46;4.82;;;2.85;;
36801;SDS011;22753;42.604;23.366;2022-07-10T10:18:13;4.93;;;3.03;;
36801;SDS011;22753;42.604;23.366;2022-07-10T10:20:41;4.97;;;2.78;;
36801;SDS011;22753;42.604;23.366;2022-07-10T10:23:18;6.15;;;3.05;;
36801;SDS011;22753;42.604;23.366;2022-07-10T10:25:47;6.13;;;3.30;;
36801;SDS011;22753;42.604;23.366;2022-07-10T10:28:14;9.65;;;2.90;;
36801;SDS011;22753;42.604;23.366;2022-07-10T10:30:42;4.35;;;2.95;;
36801;SDS011;22753;42.604;23.366;2022-07-10T10:36:02;8.70;;;3.05;;
36801;SDS011;22753;42.604;23.366;2022-07-10T10:49:24;6.07;;;3.00;;
36801;SDS011;22753;42.604;23.366;2022-07-10T10:54:29;8.27;;;2.72;;
36801;SDS011;22753;42.604;23.366;2022-07-10T10:57:13;5.75;;;2.88;;
36801;SDS011;22753;42.604;23.366;2022-07-10T11:02:28;5.13;;;2.60;;
36801;SDS011;22753;42.604;23.366;2022-07-10T11:07:59;4.78;;;2.85;;
36801;SDS011;22753;42.604;23.366;2022-07-10T11:10:28;6.55;;;2.60;;
36801;SDS011;22753;42.604;23.366;2022-07-10T11:15:25;4.80;;;2.40;;
36801;SDS011;22753;42.604;23.366;2022-07-10T11:17:51;5.57;;;2.42;;
36801;SDS011;22753;42.604;23.366;2022-07-10T11:20:17;3.75;;;2.53;;
36801;SDS011;22753;42.604;23.366;2022-07-10T11:22:46;5.18;;;2.80;;
36801;SDS011;22753;42.604;23.366;2022-07-10T11:28:10;6.13;;;2.80;;
36801;SDS011;22753;42.604;23.366;2022-07-10T11:30:46;4.38;;;2.70;;
36801;SDS011;22753;42.604;23.366;2022-07-10T11:33:12;4.88;;;2.50;;
36801;SDS011;22753;42.604;23.366;2022-07-10T11:35:38;5.55;;;2.78;;
36801;SDS011;22753;42.604;23.366;2022-07-10T11:38:05;2.67;;;2.40;;
36801;SDS011;22753;42.604;23.366;2022-07-10T11:40:30;4.85;;;3.00;;
36801;SDS011;22753;42.604;23.366;2022-07-10T11:42:56;5.50;;;2.70;;
36801;SDS011;22753;42.604;23.366;2022-07-10T11:45:24;8.05;;;3.03;;
36801;SDS011;22753;42.604;23.366;2022-07-10T11:47:51;3.75;;;2.80;;
36801;SDS011;22753;42.604;23.366;2022-07-10T11:50:16;5.57;;;2.83;;
36801;SDS011;22753;42.604;23.366;2022-07-10T11:52:42;4.53;;;2.38;;
36801;SDS011;22753;42.604;23.366;2022-07-10T11:55:14;4.65;;;2.60;;
36801;SDS011;22753;42.604;23.366;2022-07-10T11:57:44;6.00;;;2.95;;
36801;SDS011;22753;42.604;23.366;2022-07-10T12:00:46;5.50;;;3.00;;
36801;SDS011;22753;42.604;23.366;2022-07-10T12:03:20;3.10;;;2.50;;
36801;SDS011;22753;42.604;23.366;2022-07-10T12:05:47;5.90;;;2.60;;
36801;SDS011;22753;42.604;23.366;2022-07-10T12:08:13;4.55;;;2.47;;
36801;SDS011;22753;42.604;23.366;2022-07-10T12:10:39;4.85;;;2.45;;
36801;SDS011;22753;42.604;23.366;2022-07-10T12:13:11;3.97;;;2.70;;
36801;SDS011;22753;42.604;23.366;2022-07-10T12:18:07;5.78;;;2.50;;
36801;SDS011;22753;42.604;23.366;2022-07-10T12:20:34;6.13;;;2.60;;
36801;SDS011;22753;42.604;23.366;2022-07-10T12:23:00;5.55;;;2.47;;
36801;SDS011;22753;42.604;23.366;2022-07-10T12:25:26;3.97;;;2.50;;
36801;SDS011;22753;42.604;23.366;2022-07-10T12:27:55;3.00;;;2.13;;
36801;SDS011;22753;42.604;23.366;2022-07-10T12:30:22;5.50;;;2.30;;
36801;SDS011;22753;42.604;23.366;2022-07-10T12:32:48;4.47;;;2.33;;
36801;SDS011;22753;42.604;23.366;2022-07-10T12:35:13;3.08;;;2.20;;
36801;SDS011;22753;42.604;23.366;2022-07-10T12:37:49;3.78;;;2.20;;
36801;SDS011;22753;42.604;23.366;2022-07-10T12:40:34;5.18;;;2.40;;
36801;SDS011;22753;42.604;23.366;2022-07-10T12:43:03;4.00;;;2.35;;
36801;SDS011;22753;42.604;23.366;2022-07-10T12:45:29;3.75;;;2.47;;
36801;SDS011;22753;42.604;23.366;2022-07-10T12:47:54;6.43;;;2.53;;
36801;SDS011;22753;42.604;23.366;2022-07-10T12:50:20;4.68;;;2.42;;
36801;SDS011;22753;42.604;23.366;2022-07-10T12:52:46;3.45;;;2.50;;
36801;SDS011;22753;42.604;23.366;2022-07-10T12:55:18;3.22;;;2.00;;
36801;SDS011;22753;42.604;23.366;2022-07-10T13:00:17;4.57;;;2.20;;
36801;SDS011;22753;42.604;23.366;2022-07-10T13:02:45;4.22;;;1.92;;
36801;SDS011;22753;42.604;23.366;2022-07-10T13:05:37;5.05;;;2.00;;
36801;SDS011;22753;42.604;23.366;2022-07-10T13:10:55;2.63;;;1.90;;
36801;SDS011;22753;42.604;23.366;2022-07-10T13:13:23;5.25;;;2.03;;
36801;SDS011;22753;42.604;23.366;2022-07-10T13:15:49;4.18;;;1.73;;
36801;SDS011;22753;42.604;23.366;2022-07-10T13:18:16;2.50;;;1.70;;
36801;SDS011;22753;42.604;23.366;2022-07-10T13:20:43;1.75;;;1.65;;
36801;SDS011;22753;42.604;23.366;2022-07-10T13:23:09;5.38;;;2.08;;
36801;SDS011;22753;42.604;23.366;2022-07-10T13:25:36;4.38;;;1.50;;
36801;SDS011;22753;42.604;23.366;2022-07-10T13:28:01;5.75;;;1.85;;
36801;SDS011;22753;42.604;23.366;2022-07-10T13:30:27;2.55;;;1.60;;
36801;SDS011;22753;42.604;23.366;2022-07-10T13:32:53;3.05;;;1.52;;
36801;SDS011;22753;42.604;23.366;2022-07-10T13:35:19;3.42;;;1.65;;
36801;SDS011;22753;42.604;23.366;2022-07-10T13:37:44;3.17;;;1.50;;
36801;SDS011;22753;42.604;23.366;2022-07-10T13:40:11;2.78;;;1.35;;
36801;SDS011;22753;42.604;23.366;2022-07-10T13:42:37;2.83;;;1.50;;
36801;SDS011;22753;42.604;23.366;2022-07-10T13:45:03;2.03;;;1.45;;
36801;SDS011;22753;42.604;23.366;2022-07-10T13:47:28;4.40;;;1.40;;
36801;SDS011;22753;42.604;23.366;2022-07-10T13:49:54;3.92;;;1.50;;
36801;SDS011;22753;42.604;23.366;2022-07-10T13:52:20;3.10;;;1.50;;
36801;SDS011;22753;42.604;23.366;2022-07-10T13:54:45;3.83;;;1.70;;
36801;SDS011;22753;42.604;23.366;2022-07-10T13:57:10;6.68;;;1.52;;
36801;SDS011;22753;42.604;23.366;2022-07-10T13:59:36;2.92;;;1.40;;
36801;SDS011;22753;42.604;23.366;2022-07-10T14:02:02;2.78;;;1.52;;
36801;SDS011;22753;42.604;23.366;2022-07-10T14:04:27;2.17;;;1.40;;
36801;SDS011;22753;42.604;23.366;2022-07-10T14:06:53;3.97;;;1.55;;
36801;SDS011;22753;42.604;23.366;2022-07-10T14:09:19;8.20;;;1.65;;
36801;SDS011;22753;42.604;23.366;2022-07-10T14:11:47;1.98;;;1.50;;
36801;SDS011;22753;42.604;23.366;2022-07-10T14:14:13;2.58;;;1.90;;
36801;SDS011;22753;42.604;23.366;2022-07-10T14:16:38;3.22;;;1.25;;
36801;SDS011;22753;42.604;23.366;2022-07-10T14:19:04;3.40;;;1.50;;
36801;SDS011;22753;42.604;23.366;2022-07-10T14:21:30;2.22;;;1.50;;
36801;SDS011;22753;42.604;23.366;2022-07-10T14:23:55;1.95;;;1.45;;
36801;SDS011;22753;42.604;23.366;2022-07-10T14:26:24;2.38;;;1.60;;
36801;SDS011;22753;42.604;23.366;2022-07-10T14:28:49;2.38;;;1.40;;
36801;SDS011;22753;42.604;23.366;2022-07-10T14:31:16;2.30;;;1.40;;
36801;SDS011;22753;42.604;23.366;2022-07-10T14:33:42;3.00;;;1.65;;
36801;SDS011;22753;42.604;23.366;2022-07-10T14:36:08;3.72;;;1.38;;
36801;SDS011;22753;42.604;23.366;2022-07-10T14:38:34;1.88;;;1.60;;
36801;SDS011;22753;42.604;23.366;2022-07-10T14:40:59;6.53;;;1.85;;
36801;SDS011;22753;42.604;23.366;2022-07-10T14:43:25;4.63;;;1.50;;
36801;SDS011;22753;42.604;23.366;2022-07-10T14:45:51;5.97;;;2.20;;
36801;SDS011;22753;42.604;23.366;2022-07-10T14:48:17;4.20;;;1.58;;
36801;SDS011;22753;42.604;23.366;2022-07-10T14:50:42;1.67;;;1.30;;
36801;SDS011;22753;42.604;23.366;2022-07-10T14:53:08;4.97;;;1.60;;
36801;SDS011;22753;42.604;23.366;2022-07-10T14:55:34;2.38;;;1.30;;
36801;SDS011;22753;42.604;23.366;2022-07-10T14:58:01;3.17;;;1.50;;
36801;SDS011;22753;42.604;23.366;2022-07-10T15:00:26;3.78;;;1.40;;
36801;SDS011;22753;42.604;23.366;2022-07-10T15:02:52;3.33;;;1.65;;
36801;SDS011;22753;42.604;23.366;2022-07-10T15:05:17;4.72;;;1.60;;
36801;SDS011;22753;42.604;23.366;2022-07-10T15:07:43;3.92;;;1.50;;
36801;SDS011;22753;42.604;23.366;2022-07-10T15:10:08;5.75;;;1.90;;
36801;SDS011;22753;42.604;23.366;2022-07-10T15:12:34;2.03;;;1.60;;
36801;SDS011;22753;42.604;23.366;2022-07-10T15:15:02;2.22;;;1.50;;
36801;SDS011;22753;42.604;23.366;2022-07-10T15:17:28;2.58;;;1.77;;